Time;durP1;ratioP1;P1;durP2;ratioP2;P2;SDS_P1;SDS_P2;PMS_P1;PMS_P2;Temp;Humidity;BMP_temperature;BMP_pressure;BME280_temperature;BME280_humidity;BME280_pressure;Samples;Min_cycle;Max_cycle;Signal;HPM_P1;HPM_P2
2022/03/21 00:03:50;;;;;;;2.60;1.27;;;18.50;31.40;21.20;95042.00;;;;10316770;28;47232;-62
2022/03/21 00:08:50;;;;;;;2.00;1.20;;;18.50;31.40;21.20;95041.00;;;;10332605;28;45625;-62
2022/03/21 00:13:53;;;;;;;1.48;1.20;;;18.50;31.40;21.20;95046.00;;;;10332015;28;45388;-62
2022/03/21 00:18:54;;;;;;;1.80;1.35;;;18.50;31.40;21.20;95042.00;;;;10331618;28;47156;-62
2022/03/21 00:23:54;;;;;;;1.52;1.17;;;18.50;31.40;21.20;95050.00;;;;10317574;28;45426;-62
2022/03/21 00:28:55;;;;;;;1.67;1.40;;;18.40;31.40;21.20;95053.00;;;;10331754;28;45596;-62
2022/03/21 00:33:56;;;;;;;3.30;1.40;;;18.40;31.40;21.10;95060.00;;;;10317329;28;45555;-62
2022/03/21 00:38:57;;;;;;;2.42;1.70;;;18.40;31.40;21.10;95057.00;;;;10332163;28;45413;-62
2022/03/21 00:43:59;;;;;;;2.03;1.33;;;18.40;31.40;21.10;95050.00;;;;10332021;28;45456;-62
2022/03/21 00:49:00;;;;;;;2.28;1.40;;;18.40;31.30;21.10;95058.00;;;;10331060;28;46508;-62
2022/03/21 00:54:01;;;;;;;2.55;1.60;;;18.40;31.40;21.10;95051.00;;;;10331762;28;45217;-62
2022/03/21 00:59:01;;;;;;;1.90;1.38;;;18.40;31.40;21.10;95036.00;;;;10331036;28;47001;-62
2022/03/21 01:04:02;;;;;;;2.35;1.20;;;18.30;31.30;21.10;95039.00;;;;10316345;28;45381;-62
2022/03/21 01:09:03;;;;;;;2.15;1.40;;;18.40;31.40;21.10;95056.00;;;;10330865;28;45542;-62
2022/03/21 01:14:05;;;;;;;2.20;1.58;;;18.40;31.40;21.10;95026.00;;;;10331333;28;45311;-63
2022/03/21 01:19:06;;;;;;;2.13;1.40;;;18.30;31.30;21.10;95027.00;;;;10329549;28;48072;-63
2022/03/21 01:24:06;;;;;;;2.58;1.50;;;18.30;31.40;21.10;95040.00;;;;10313935;28;48018;-63
2022/03/21 01:29:07;;;;;;;1.90;1.23;;;18.30;31.40;21.00;95036.00;;;;10326747;23;47253;-61
2022/03/21 01:34:08;;;;;;;2.17;1.30;;;18.30;31.30;21.10;95042.00;;;;10314003;28;45196;-64
2022/03/21 01:39:08;;;;;;;2.22;1.50;;;18.30;31.30;21.00;95048.00;;;;10281369;28;45383;-61
2022/03/21 01:44:10;;;;;;;1.95;1.40;;;18.30;31.30;21.00;95044.00;;;;10274764;28;45198;-61
2022/03/21 01:49:11;;;;;;;2.10;1.50;;;18.30;31.30;21.00;95041.00;;;;10272878;28;48119;-62
2022/03/21 01:59:33;;;;;;;1.60;1.40;;;18.30;31.30;21.00;95026.00;;;;10284835;28;45870;-62
2022/03/21 02:04:34;;;;;;;1.88;1.33;;;18.30;31.30;21.00;95033.00;;;;10285343;28;45394;-62
2022/03/21 02:09:35;;;;;;;2.80;1.73;;;18.30;31.30;21.00;95014.00;;;;10288131;28;45275;-64
2022/03/21 02:14:39;;;;;;;1.90;1.40;;;18.20;31.30;21.00;95024.00;;;;10273406;28;46291;-62
2022/03/21 02:19:40;;;;;;;2.08;1.60;;;18.30;31.30;20.90;95040.00;;;;10271510;28;46970;-61
2022/03/21 02:25:02;;;;;;;1.95;1.65;;;18.20;31.30;21.00;95036.00;;;;10271989;28;46631;-61
2022/03/21 02:30:05;;;;;;;2.13;1.52;;;18.20;31.30;20.90;95042.00;;;;10271880;28;47001;-61
2022/03/21 02:35:06;;;;;;;1.75;1.50;;;18.20;31.30;20.90;95016.00;;;;10271529;28;46899;-63
2022/03/21 02:40:08;;;;;;;2.17;1.50;;;18.20;31.30;20.90;95023.00;;;;10300651;28;46649;-62
2022/03/21 02:45:09;;;;;;;2.28;1.40;;;18.20;31.30;20.90;95030.00;;;;10301169;28;45428;-62
2022/03/21 02:50:19;;;;;;;1.63;1.30;;;18.20;31.30;20.90;95012.00;;;;10301061;28;45422;-64
2022/03/21 02:55:20;;;;;;;2.30;1.40;;;18.20;31.20;20.90;95023.00;;;;10301113;28;46098;-62
2022/03/21 03:00:20;;;;;;;1.90;1.40;;;18.20;31.20;20.90;95020.00;;;;10301102;28;45331;-61
2022/03/21 03:05:21;;;;;;;2.17;1.42;;;18.30;31.30;20.90;95014.00;;;;10300797;28;46123;-62
2022/03/21 03:10:22;;;;;;;2.80;1.50;;;18.20;31.20;20.90;95021.00;;;;10285891;28;45618;-63
2022/03/21 03:15:23;;;;;;;1.98;1.45;;;18.30;31.30;20.90;95020.00;;;;10285340;28;46611;-61
2022/03/21 03:20:23;;;;;;;2.35;1.67;;;18.20;31.20;20.90;95032.00;;;;10283758;28;46979;-62
2022/03/21 03:25:24;;;;;;;1.50;1.23;;;18.20;31.20;20.90;95028.00;;;;10299930;28;45474;-69
2022/03/21 03:30:25;;;;;;;1.85;1.52;;;18.30;31.20;20.90;95035.00;;;;10285226;28;45199;-62
2022/03/21 03:35:26;;;;;;;1.90;1.48;;;18.20;31.20;20.90;95054.00;;;;10299817;28;45316;-64
2022/03/21 03:40:26;;;;;;;1.85;1.50;;;18.20;31.20;20.90;95039.00;;;;10300294;28;45220;-62
2022/03/21 03:45:27;;;;;;;2.70;1.55;;;18.20;31.10;20.90;95055.00;;;;10284566;28;46721;-62
2022/03/21 03:50:28;;;;;;;2.13;1.52;;;18.20;31.10;20.90;95047.00;;;;10277114;28;48049;-64
2022/03/21 03:55:29;;;;;;;1.88;1.42;;;18.20;31.20;20.90;95040.00;;;;10292721;28;45214;-61
2022/03/21 04:00:30;;;;;;;1.50;1.27;;;18.20;31.20;20.90;95062.00;;;;10277720;28;45306;-62
2022/03/21 04:05:30;;;;;;;1.63;1.42;;;18.20;31.20;20.90;95075.00;;;;10292090;28;46147;-61
2022/03/21 04:10:32;;;;;;;1.60;1.42;;;18.20;31.10;20.90;95063.00;;;;10292619;28;45292;-62
2022/03/21 04:15:33;;;;;;;2.03;1.50;;;18.20;31.10;20.90;95066.00;;;;10292414;28;46310;-62
2022/03/21 04:20:36;;;;;;;2.30;1.50;;;18.20;31.10;20.90;95063.00;;;;10275751;28;47074;-62
2022/03/21 04:25:37;;;;;;;1.90;1.38;;;18.20;31.10;20.90;95072.00;;;;10291138;28;46157;-62
2022/03/21 04:30:38;;;;;;;2.00;1.40;;;18.20;31.10;20.90;95059.00;;;;10277088;28;46088;-62
2022/03/21 04:35:41;;;;;;;1.65;1.48;;;18.10;31.10;20.90;95048.00;;;;10275052;28;48069;-61
2022/03/21 04:40:46;;;;;;;1.65;1.25;;;18.10;31.10;20.90;95069.00;;;;10291371;28;45167;-62
2022/03/21 04:45:48;;;;;;;1.83;1.42;;;18.20;31.10;20.90;95070.00;;;;10258322;28;46946;-62
2022/03/21 04:50:49;;;;;;;2.05;1.45;;;18.20;31.10;20.80;95068.00;;;;10276224;28;45226;-62
2022/03/21 04:55:49;;;;;;;1.88;1.20;;;18.20;31.10;20.80;95083.00;;;;10291014;28;45396;-61
2022/03/21 05:00:50;;;;;;;2.33;1.42;;;18.10;31.10;20.80;95075.00;;;;10290794;28;45144;-61
2022/03/21 05:05:51;;;;;;;2.28;1.67;;;18.10;31.00;20.80;95082.00;;;;10273934;28;46945;-62
2022/03/21 05:10:51;;;;;;;2.15;1.40;;;18.20;31.10;20.80;95088.00;;;;10290840;28;46255;-62
2022/03/21 05:15:52;;;;;;;1.60;1.30;;;18.10;31.00;20.80;95085.00;;;;10290414;28;45118;-61
2022/03/21 05:20:53;;;;;;;2.38;1.60;;;18.20;31.20;20.90;95096.00;;;;10273581;28;47028;-63
2022/03/21 05:31:13;;;;;;;2.58;1.52;;;18.40;30.90;21.10;95122.00;;;;10275390;28;45308;-61
2022/03/21 05:36:14;;;;;;;2.17;1.60;;;18.50;30.70;21.10;95108.00;;;;10289687;28;46314;-61
2022/03/21 05:41:15;;;;;;;1.88;1.38;;;18.60;30.70;21.10;95100.00;;;;10289790;28;45431;-62
2022/03/21 05:46:15;;;;;;;1.75;1.48;;;18.60;30.60;21.20;95103.00;;;;10273518;28;45371;-62
2022/03/21 05:51:34;;;;;;;1.83;1.33;;;18.70;30.60;21.20;95108.00;;;;10272943;28;46846;-62
2022/03/21 05:56:36;;;;;;;2.10;1.60;;;18.70;30.50;21.30;95101.00;;;;10256321;28;48305;-62
2022/03/21 06:01:37;;;;;;;1.50;1.38;;;18.80;30.50;21.30;95119.00;;;;10272606;28;46915;-63
2022/03/21 06:06:38;;;;;;;1.58;1.20;;;18.80;30.40;21.30;95122.00;;;;10273456;28;45178;-62
2022/03/21 06:11:39;;;;;;;2.20;1.55;;;18.80;30.30;21.40;95125.00;;;;10288066;28;46099;-63
2022/03/21 06:16:39;;;;;;;2.17;1.60;;;18.90;31.00;21.40;95127.00;;;;10271875;28;47023;-62
2022/03/21 06:21:40;;;;;;;2.53;1.55;;;18.90;30.30;21.40;95118.00;;;;10272079;28;47264;-62
2022/03/21 06:26:42;;;;;;;2.03;1.58;;;18.90;30.30;21.40;95151.00;;;;10288075;28;45333;-62
2022/03/21 06:31:44;;;;;;;2.15;1.60;;;18.80;30.90;21.40;95157.00;;;;10288388;28;45136;-62
2022/03/21 06:36:44;;;;;;;1.70;1.45;;;18.80;30.10;21.40;95159.00;;;;10270975;28;47069;-62
2022/03/21 06:41:46;;;;;;;2.88;1.88;;;18.80;30.20;21.30;95162.00;;;;10289624;28;45465;-62
2022/03/21 06:46:47;;;;;;;2.47;1.65;;;18.80;30.20;21.30;95174.00;;;;10271908;28;45472;-63
2022/03/21 06:51:47;;;;;;;2.42;1.80;;;18.80;30.30;21.30;95175.00;;;;10287743;28;45439;-62
2022/03/21 06:56:48;;;;;;;1.83;1.60;;;18.70;30.10;21.30;95174.00;;;;10272221;28;46621;-62
2022/03/21 07:01:49;;;;;;;2.60;1.65;;;18.80;30.20;21.40;95187.00;;;;10287715;28;45246;-62
2022/03/21 07:06:51;;;;;;;3.50;1.70;;;18.80;30.20;21.40;95187.00;;;;10287095;28;45122;-62
2022/03/21 07:11:52;;;;;;;4.38;2.50;;;18.80;30.10;21.30;95184.00;;;;10288590;28;47139;-66
2022/03/21 07:16:52;;;;;;;4.10;2.60;;;18.70;29.30;21.30;95188.00;;;;10270670;28;47059;-64
2022/03/21 07:21:53;;;;;;;3.75;2.67;;;18.60;30.10;21.20;95181.00;;;;10287201;28;48106;-63
2022/03/21 07:26:54;;;;;;;3.50;2.60;;;18.60;30.00;21.20;95178.00;;;;10312045;22;48175;-67
2022/03/21 07:31:56;;;;;;;3.85;2.60;;;18.60;30.00;21.20;95184.00;;;;10318393;28;47112;-67
2022/03/21 07:36:56;;;;;;;5.07;3.13;;;18.50;29.80;21.20;95194.00;;;;10333251;28;45329;-64
2022/03/21 07:42:00;;;;;;;5.63;3.55;;;18.60;29.60;21.10;95203.00;;;;10332290;28;45264;-64
2022/03/21 07:52:21;;;;;;;6.22;2.92;;;18.40;28.60;21.00;95197.00;;;;10327435;28;45188;-64
2022/03/21 07:57:24;;;;;;;4.22;2.80;;;18.40;29.20;21.10;95206.00;;;;10331022;28;45513;-64
2022/03/21 08:02:26;;;;;;;4.72;2.78;;;18.50;29.10;21.10;95195.00;;;;10332380;28;47256;-65
2022/03/21 08:07:27;;;;;;;5.32;2.90;;;18.50;29.30;21.10;95211.00;;;;10314932;28;46689;-64
2022/03/21 08:12:28;;;;;;;5.20;2.75;;;18.40;29.40;21.10;95209.00;;;;10331806;28;45327;-64
2022/03/21 08:17:30;;;;;;;4.72;2.65;;;18.50;29.10;21.10;95211.00;;;;10331496;28;47300;-65
2022/03/21 08:22:31;;;;;;;5.07;2.97;;;18.40;29.50;21.10;95218.00;;;;10331563;28;47410;-65
2022/03/21 08:27:32;;;;;;;5.60;3.25;;;18.50;29.60;21.10;95189.00;;;;10314550;28;47063;-65
2022/03/21 08:32:33;;;;;;;5.22;3.15;;;18.50;29.40;21.10;95208.00;;;;10331424;28;46080;-65
2022/03/21 08:37:34;;;;;;;5.03;3.38;;;18.40;29.60;21.10;95207.00;;;;10313623;28;47001;-64
2022/03/21 08:42:35;;;;;;;5.65;2.95;;;18.40;29.40;21.10;95190.00;;;;10315946;28;45427;-65
2022/03/21 08:47:37;;;;;;;3.90;2.90;;;18.40;29.50;21.10;95189.00;;;;10330154;28;47576;-65
2022/03/21 08:52:38;;;;;;;4.82;3.00;;;18.50;29.50;21.10;95197.00;;;;10330832;28;46957;-64
2022/03/21 08:57:39;;;;;;;4.13;2.90;;;18.50;29.60;21.10;95205.00;;;;10330048;28;47946;-65
2022/03/21 09:02:41;;;;;;;5.07;2.95;;;18.40;29.50;21.10;95205.00;;;;10330376;28;45261;-65
2022/03/21 09:07:42;;;;;;;5.20;3.05;;;18.40;29.30;21.10;95197.00;;;;10329760;28;46091;-64
2022/03/21 09:12:43;;;;;;;3.92;2.70;;;18.40;29.50;21.10;95193.00;;;;10330936;28;45390;-65
2022/03/21 09:17:44;;;;;;;4.35;2.72;;;18.50;29.50;21.10;95181.00;;;;10329399;28;47300;-65
2022/03/21 09:22:44;;;;;;;5.47;3.17;;;18.50;29.20;21.10;95183.00;;;;10329933;28;45435;-65
2022/03/21 09:27:45;;;;;;;3.40;2.40;;;18.40;29.50;21.10;95187.00;;;;10329554;28;45572;-66
2022/03/21 09:32:46;;;;;;;4.95;3.17;;;18.40;29.50;21.10;95176.00;;;;10329287;28;46944;-64
2022/03/21 09:37:47;;;;;;;4.95;2.92;;;18.40;29.50;21.10;95174.00;;;;10329309;28;46077;-65
2022/03/21 09:42:48;;;;;;;4.38;2.92;;;18.40;29.50;21.10;95171.00;;;;10312387;28;47792;-65
2022/03/21 09:53:11;;;;;;;4.07;2.92;;;18.30;29.50;21.00;95157.00;;;;10326546;28;45195;-64
2022/03/21 09:58:12;;;;;;;4.43;2.80;;;18.40;29.50;21.10;95169.00;;;;10328811;28;46183;-64
2022/03/21 10:03:13;;;;;;;4.78;2.65;;;18.40;29.40;21.10;95166.00;;;;10328424;28;45422;-65
2022/03/21 10:08:21;;;;;;;4.72;2.97;;;18.40;29.30;21.10;95162.00;;;;10313692;28;45458;-66
2022/03/21 10:13:24;;;;;;;4.93;3.20;;;18.50;29.50;21.00;95163.00;;;;10329135;28;47436;-65
2022/03/21 10:18:24;;;;;;;7.63;3.55;;;18.50;29.40;21.10;95156.00;;;;10327361;28;46904;-65
2022/03/21 10:23:27;;;;;;;4.30;3.03;;;18.50;29.20;21.00;95156.00;;;;10327342;28;45297;-66
2022/03/21 10:28:42;;;;;;;9.77;3.10;;;18.40;28.80;21.10;95147.00;;;;10327932;28;46144;-64
2022/03/21 10:33:43;;;;;;;5.38;3.42;;;18.50;29.10;21.10;95154.00;;;;10326655;28;45613;-63
2022/03/21 10:38:44;;;;;;;5.60;2.97;;;18.50;29.20;21.10;95143.00;;;;10328255;28;45293;-64
2022/03/21 10:43:54;;;;;;;4.75;3.17;;;18.50;29.40;21.10;95150.00;;;;10328441;28;45633;-64
2022/03/21 10:49:08;;;;;;;7.88;3.20;;;18.50;29.80;21.10;95138.00;;;;10311781;28;45608;-63
2022/03/21 10:54:09;;;;;;;6.65;3.53;;;18.40;29.50;21.00;95139.00;;;;10305381;28;46854;-63
2022/03/21 10:59:09;;;;;;;5.53;3.10;;;18.40;29.00;21.00;95135.00;;;;10330434;28;46476;-64
2022/03/21 11:04:10;;;;;;;5.28;3.25;;;18.40;29.00;21.10;95128.00;;;;10335074;28;45466;-66
2022/03/21 11:09:11;;;;;;;6.10;3.40;;;18.40;28.70;21.10;95132.00;;;;10334576;28;45227;-64
2022/03/21 11:14:12;;;;;;;6.50;3.13;;;18.40;29.00;21.10;95133.00;;;;10334776;28;45480;-64
2022/03/21 11:19:13;;;;;;;7.18;3.60;;;18.50;28.70;21.10;95125.00;;;;10334205;28;47372;-64
2022/03/21 11:24:15;;;;;;;5.65;3.00;;;18.50;28.90;21.10;95107.00;;;;10318099;28;48012;-64
2022/03/21 11:30:11;;;;;;;5.63;3.13;;;18.40;28.90;21.10;95118.00;;;;10317319;28;47045;-64
2022/03/21 11:35:24;;;;;;;4.78;2.92;;;18.50;29.00;21.20;95120.00;;;;10333734;28;45192;-64
2022/03/21 11:40:30;;;;;;;4.47;3.08;;;18.50;29.10;21.20;95112.00;;;;10317244;28;47228;-64
2022/03/21 11:45:36;;;;;;;6.75;3.33;;;18.40;29.10;21.20;95113.00;;;;10333382;28;46379;-64
2022/03/21 11:50:37;;;;;;;5.10;3.17;;;18.40;29.10;21.20;95110.00;;;;10332963;28;46240;-66
2022/03/21 11:55:41;;;;;;;4.65;2.78;;;18.50;29.10;21.20;95094.00;;;;10324792;28;45219;-64
2022/03/21 12:01:17;;;;;;;3.95;2.75;;;18.50;29.10;21.10;95091.00;;;;10316826;28;47317;-64
2022/03/21 12:06:32;;;;;;;4.57;2.83;;;18.50;29.10;21.20;95098.00;;;;10331974;28;47219;-64
2022/03/21 12:11:39;;;;;;;5.25;3.20;;;18.50;29.10;21.10;95096.00;;;;10331668;28;47185;-63
2022/03/21 12:16:40;;;;;;;3.67;2.70;;;18.50;29.20;21.10;95083.00;;;;10343213;28;47036;-64
2022/03/21 12:21:40;;;;;;;3.97;2.60;;;18.40;29.10;21.20;95087.00;;;;10373426;28;48616;-64
2022/03/21 12:26:53;;;;;;;4.60;3.05;;;18.50;29.10;21.20;95080.00;;;;10372872;28;47134;-64
2022/03/21 12:32:26;;;;;;;4.65;2.83;;;18.50;29.00;21.20;95076.00;;;;10356795;28;46985;-64
2022/03/21 12:37:42;;;;;;;9.70;3.42;;;18.50;29.10;21.10;95069.00;;;;10339682;28;48517;-64
2022/03/21 12:42:46;;;;;;;4.03;2.70;;;18.50;29.10;21.10;95069.00;;;;10373087;28;45553;-64
2022/03/21 12:47:48;;;;;;;4.00;2.70;;;18.50;29.20;21.10;95060.00;;;;10355625;28;47544;-64
2022/03/21 12:52:55;;;;;;;4.47;2.72;;;18.50;28.60;21.10;95063.00;;;;10372978;28;45506;-64
2022/03/21 12:58:02;;;;;;;4.70;2.70;;;18.40;29.00;21.10;95055.00;;;;10372124;28;45549;-64
2022/03/21 13:03:14;;;;;;;;;;;18.50;29.00;21.10;95059.00;;;;10362296;28;47003;-64
2022/03/21 13:13:42;;;;;;;5.95;2.80;;;18.40;29.10;21.10;95043.00;;;;10315814;28;45409;-64
2022/03/21 13:18:42;;;;;;;5.68;2.30;;;18.50;29.30;21.20;95035.00;;;;10314316;28;45323;-64
2022/03/21 13:23:44;;;;;;;6.80;2.83;;;18.50;29.30;21.20;95033.00;;;;10312829;28;46719;-64
2022/03/21 13:28:46;;;;;;;5.88;2.63;;;18.50;29.40;21.20;95023.00;;;;10351497;22;47375;-62
2022/03/21 13:33:58;;;;;;;6.55;2.50;;;18.50;29.40;21.20;95029.00;;;;10313560;28;45265;-62
2022/03/21 13:39:22;;;;;;;3.75;2.28;;;18.50;29.40;21.20;95022.00;;;;10313007;28;45184;-62
2022/03/21 13:44:32;;;;;;;5.82;2.40;;;18.50;29.50;21.20;95006.00;;;;10312947;28;47067;-62
2022/03/21 13:50:06;;;;;;;5.55;2.58;;;18.60;29.50;21.20;95026.00;;;;10328329;28;45228;-63
2022/03/21 13:55:09;;;;;;;3.90;2.15;;;18.50;29.40;21.20;95011.00;;;;10296368;28;47163;-62
2022/03/21 14:00:11;;;;;;;6.85;2.50;;;18.50;29.30;21.10;95003.00;;;;10328007;28;45227;-62
2022/03/21 14:05:20;;;;;;;3.88;2.15;;;18.50;28.90;21.20;94994.00;;;;10328560;28;46802;-63
2022/03/21 14:10:26;;;;;;;4.38;2.05;;;18.50;29.10;21.10;94997.00;;;;10328122;28;45370;-62
2022/03/21 14:15:28;;;;;;;4.77;2.27;;;18.50;29.00;21.10;94995.00;;;;10327494;28;45494;-61
2022/03/21 14:20:28;;;;;;;5.07;2.33;;;18.50;28.70;21.10;94982.00;;;;10310880;28;47798;-61
2022/03/21 14:30:49;;;;;;;5.00;2.17;;;18.40;28.30;21.10;94976.00;;;;10325505;28;45194;-62
2022/03/21 14:35:50;;;;;;;5.22;2.03;;;18.40;28.40;21.10;94979.00;;;;10310567;28;47989;-62
2022/03/21 14:40:51;;;;;;;3.22;2.05;;;18.40;28.60;21.10;94967.00;;;;10312806;28;46007;-62
2022/03/21 14:45:53;;;;;;;5.13;2.17;;;18.40;28.60;21.10;94966.00;;;;10315799;28;47027;-63
2022/03/21 14:51:00;;;;;;;4.60;1.85;;;18.40;28.40;21.10;94971.00;;;;10340711;28;46483;-65
2022/03/21 14:56:03;;;;;;;3.60;2.05;;;18.50;28.50;21.10;94968.00;;;;10329505;28;47076;-67
2022/03/21 15:01:07;;;;;;;4.53;2.13;;;18.60;27.00;21.10;94974.00;;;;10352014;28;47970;-68
2022/03/21 15:06:09;;;;;;;7.60;2.05;;;18.60;27.20;21.20;94961.00;;;;10323805;28;47490;-68
2022/03/21 15:11:12;;;;;;;5.80;2.30;;;18.60;28.20;21.20;94960.00;;;;10352027;28;47079;-64
2022/03/21 15:16:13;;;;;;;18.98;7.20;;;18.60;28.30;21.10;94957.00;;;;10353973;28;45653;-65
2022/03/21 15:21:14;;;;;;;20.23;7.53;;;18.60;27.20;21.10;94953.00;;;;10327098;28;48227;-63
2022/03/21 15:26:18;;;;;;;19.80;6.85;;;18.60;26.10;21.10;94970.00;;;;10338769;28;45402;-64
2022/03/21 15:31:19;;;;;;;14.75;5.22;;;18.50;26.50;21.10;94964.00;;;;10346079;28;45331;-64
2022/03/21 15:41:41;;;;;;;11.65;4.20;;;18.50;25.60;21.10;94962.00;;;;10343752;28;45245;-61
2022/03/21 15:46:42;;;;;;;11.95;3.75;;;18.50;27.10;21.10;94949.00;;;;10357847;28;46545;-66
2022/03/21 15:51:43;;;;;;;9.45;2.95;;;18.60;27.10;21.20;94953.00;;;;10343477;28;47128;-66
2022/03/21 15:56:44;;;;;;;8.25;2.92;;;18.60;27.40;21.20;94942.00;;;;10345497;28;45208;-67
2022/03/21 16:01:45;;;;;;;7.13;2.97;;;18.70;27.40;21.30;94946.00;;;;10342428;28;47495;-66
2022/03/21 16:06:46;;;;;;;6.72;2.47;;;18.70;27.80;21.30;94948.00;;;;10327126;28;47251;-66
2022/03/21 16:11:47;;;;;;;8.20;3.00;;;18.80;27.90;21.30;94938.00;;;;10359018;28;46096;-66
2022/03/21 16:16:47;;;;;;;8.07;2.88;;;18.80;28.20;21.30;94950.00;;;;10359489;28;45515;-64
2022/03/21 16:21:48;;;;;;;5.30;2.38;;;18.80;28.10;21.30;94942.00;;;;10353598;28;45317;-63
2022/03/21 16:26:51;;;;;;;7.35;2.47;;;18.70;28.60;21.30;94942.00;;;;10333486;28;47248;-63
2022/03/21 16:31:51;;;;;;;6.50;2.15;;;18.70;28.70;21.30;94940.00;;;;10355123;28;46446;-63
2022/03/21 16:36:52;;;;;;;5.35;2.15;;;18.70;28.70;21.30;94939.00;;;;10334350;28;47017;-62
2022/03/21 16:41:53;;;;;;;7.93;2.42;;;18.70;28.80;21.30;94951.00;;;;10335984;28;46982;-66
2022/03/21 16:46:55;;;;;;;5.00;2.13;;;18.80;28.90;21.30;94923.00;;;;10322089;28;47423;-63
2022/03/21 16:51:55;;;;;;;4.13;2.28;;;18.70;29.00;21.30;94953.00;;;;10332304;28;47014;-64
2022/03/21 16:56:58;;;;;;;6.88;2.40;;;18.70;29.10;21.30;94938.00;;;;10369447;28;45396;-63
2022/03/21 17:01:59;;;;;;;5.05;2.30;;;18.60;29.10;21.30;94950.00;;;;10356178;28;45419;-63
2022/03/21 17:07:03;;;;;;;5.93;2.28;;;18.60;29.10;21.30;94940.00;;;;10370715;28;45339;-63
2022/03/21 17:12:11;;;;;;;3.40;1.70;;;18.60;29.10;21.30;94942.00;;;;10371118;28;45331;-63
2022/03/21 17:17:12;;;;;;;7.05;2.10;;;18.60;29.10;21.30;94952.00;;;;10354033;28;47382;-63
2022/03/21 17:27:32;;;;;;;4.80;2.17;;;18.50;29.10;21.20;94946.00;;;;10354812;28;45303;-63
2022/03/21 17:32:34;;;;;;;7.22;1.92;;;18.50;29.10;21.20;94958.00;;;;10355196;28;45221;-63
2022/03/21 17:37:35;;;;;;;5.47;1.80;;;18.50;29.20;21.20;94956.00;;;;10353408;28;46932;-63
2022/03/21 17:42:37;;;;;;;7.57;2.05;;;18.50;29.10;21.20;94953.00;;;;10369570;28;45402;-62
2022/03/21 17:47:37;;;;;;;4.32;1.88;;;18.50;29.20;21.20;94958.00;;;;10354482;28;46007;-62
2022/03/21 17:52:38;;;;;;;3.67;1.80;;;18.50;29.20;21.20;94951.00;;;;10354570;28;45247;-63
2022/03/21 17:57:40;;;;;;;3.67;1.73;;;18.50;29.20;21.20;94955.00;;;;10352338;28;47171;-63
2022/03/21 18:02:41;;;;;;;5.00;2.00;;;18.50;29.20;21.20;94960.00;;;;10353294;28;45344;-63
2022/03/21 18:07:42;;;;;;;4.60;1.70;;;18.50;29.10;21.20;94968.00;;;;10342028;28;45244;-62
2022/03/21 18:12:43;;;;;;;5.40;2.05;;;18.50;29.20;21.20;94964.00;;;;10331180;28;45241;-63
2022/03/21 18:17:44;;;;;;;3.88;1.88;;;18.50;29.10;21.20;94953.00;;;;10328727;28;45983;-63
2022/03/21 18:22:47;;;;;;;4.63;2.15;;;18.50;29.10;21.20;94978.00;;;;10313982;28;45430;-62
2022/03/21 18:27:48;;;;;;;4.85;1.92;;;18.50;29.10;21.20;94972.00;;;;10311341;28;46889;-63
2022/03/21 18:32:48;;;;;;;3.10;2.03;;;18.50;29.20;21.20;94963.00;;;;10334044;28;45328;-62
2022/03/21 18:37:49;;;;;;;3.70;1.98;;;18.50;29.20;21.20;94959.00;;;;10339205;28;45303;-63
2022/03/21 18:42:50;;;;;;;4.25;2.08;;;18.50;29.20;21.20;94968.00;;;;10331514;28;46395;-62
2022/03/21 18:47:51;;;;;;;4.47;2.30;;;18.50;29.20;21.20;94960.00;;;;10329873;28;45193;-65
2022/03/21 18:52:54;;;;;;;4.30;2.00;;;18.50;29.20;21.20;94985.00;;;;10344013;28;46700;-62
2022/03/21 18:57:57;;;;;;;4.28;2.05;;;18.50;29.10;21.20;94975.00;;;;10339088;28;45422;-64
2022/03/21 19:02:58;;;;;;;4.68;1.80;;;18.50;29.10;21.20;94991.00;;;;10358241;28;45394;-63
2022/03/21 19:07:58;;;;;;;4.25;2.00;;;18.50;29.10;21.20;94986.00;;;;10351790;28;45324;-63
2022/03/21 19:13:05;;;;;;;4.13;2.20;;;18.50;29.10;21.20;94990.00;;;;10337920;28;45503;-64
2022/03/21 19:18:06;;;;;;;;;;;18.50;29.10;21.20;94981.00;;;;10311863;28;47275;-62
2022/03/21 19:23:07;;;;;;;5.15;2.05;;;18.50;29.10;21.20;94997.00;;;;10318463;28;46960;-63
2022/03/21 19:28:09;;;;;;;4.78;1.98;;;18.50;29.10;21.20;95001.00;;;;10341743;22;45424;-65
2022/03/21 19:33:12;;;;;;;2.92;1.90;;;18.50;29.10;21.20;95003.00;;;;10334994;28;45571;-63
2022/03/21 19:38:13;;;;;;;2.80;1.90;;;18.50;29.00;21.20;95008.00;;;;10317463;28;46838;-63
2022/03/21 19:43:19;;;;;;;6.45;2.05;;;18.50;29.10;21.20;95001.00;;;;10334028;28;47037;-63
2022/03/21 19:48:20;;;;;;;3.67;1.67;;;18.50;29.00;21.20;94998.00;;;;10333492;28;45133;-63
2022/03/21 19:53:21;;;;;;;5.13;2.33;;;18.50;29.00;21.20;95011.00;;;;10318759;28;45308;-64
2022/03/21 19:58:21;;;;;;;4.05;2.10;;;18.50;28.90;21.20;95003.00;;;;10333324;28;46388;-63
2022/03/21 20:03:22;;;;;;;3.22;1.83;;;18.50;29.00;21.20;95020.00;;;;10318410;28;45364;-63
2022/03/21 20:08:23;;;;;;;4.13;1.73;;;18.50;29.00;21.20;95022.00;;;;10317951;28;45485;-64
2022/03/21 20:13:23;;;;;;;3.38;1.65;;;18.50;28.90;21.20;95025.00;;;;10333241;28;45131;-63
2022/03/21 20:18:25;;;;;;;4.22;1.50;;;18.50;29.00;21.20;95030.00;;;;10331843;28;45452;-63
2022/03/21 20:23:26;;;;;;;4.18;1.90;;;18.50;28.90;21.20;95019.00;;;;10332935;28;46514;-63
2022/03/21 20:28:27;;;;;;;2.80;1.60;;;18.50;28.90;21.20;95026.00;;;;10315203;28;47938;-63
2022/03/21 20:33:27;;;;;;;3.00;1.55;;;18.50;29.00;21.20;95032.00;;;;10315169;28;48558;-63
2022/03/21 20:38:28;;;;;;;4.53;1.58;;;18.50;28.90;21.20;95029.00;;;;10315339;28;47757;-63
2022/03/21 20:43:28;;;;;;;4.20;1.48;;;18.50;28.90;21.20;95025.00;;;;10316991;28;45185;-63
2022/03/21 20:48:30;;;;;;;3.30;1.52;;;18.50;28.90;21.20;95041.00;;;;10316576;28;45379;-63
2022/03/21 20:53:31;;;;;;;3.25;1.70;;;18.50;29.00;21.20;95034.00;;;;10331870;28;45190;-64
2022/03/21 20:58:31;;;;;;;3.05;1.42;;;18.50;29.00;21.20;95043.00;;;;10325397;28;45185;-64
2022/03/21 21:03:34;;;;;;;4.03;1.88;;;18.50;29.00;21.20;95039.00;;;;10298837;28;47073;-64
2022/03/21 21:08:37;;;;;;;3.10;1.40;;;18.50;29.00;21.20;95030.00;;;;10287081;28;45409;-63
2022/03/21 21:13:39;;;;;;;2.13;1.27;;;18.50;29.00;21.20;95044.00;;;;10275721;28;45209;-63
2022/03/21 21:18:46;;;;;;;3.25;1.45;;;18.50;29.00;21.20;95035.00;;;;10273709;28;46321;-63
2022/03/21 21:23:47;;;;;;;2.65;1.58;;;18.50;29.00;21.20;95037.00;;;;10275373;28;45338;-63
2022/03/21 21:28:48;;;;;;;3.13;1.48;;;18.50;29.00;21.20;95052.00;;;;10309964;28;46772;-63
2022/03/21 21:33:49;;;;;;;3.80;1.48;;;18.50;29.00;21.20;95042.00;;;;10313016;28;46969;-63
2022/03/21 21:38:50;;;;;;;3.85;1.40;;;18.50;29.00;21.20;95053.00;;;;10315235;28;45241;-64
2022/03/21 21:43:52;;;;;;;2.33;1.30;;;18.40;29.50;21.20;95057.00;;;;10330160;28;46280;-63
2022/03/21 21:48:52;;;;;;;3.65;1.52;;;18.40;29.00;21.10;95057.00;;;;10312734;28;45594;-64
2022/03/21 21:53:53;;;;;;;2.58;1.38;;;18.40;29.00;21.10;95061.00;;;;10310547;28;46449;-61
2022/03/21 21:58:54;;;;;;;3.05;1.40;;;18.40;29.00;21.10;95053.00;;;;10329570;28;45634;-60
2022/03/21 22:03:56;;;;;;;2.65;1.20;;;18.40;29.00;21.00;95052.00;;;;10314668;28;45555;-61
2022/03/21 22:08:58;;;;;;;3.00;1.48;;;18.40;28.90;21.00;95060.00;;;;10314071;28;45482;-61
2022/03/21 22:13:58;;;;;;;4.00;1.35;;;18.30;29.00;21.00;95051.00;;;;10314408;28;46317;-61
2022/03/21 22:18:59;;;;;;;2.00;1.50;;;18.30;28.90;21.00;95059.00;;;;10312526;28;47040;-62
2022/03/21 22:24:00;;;;;;;3.17;1.65;;;18.30;29.00;21.00;95052.00;;;;10329171;28;46963;-61
2022/03/21 22:29:01;;;;;;;2.60;1.38;;;18.30;29.00;21.00;95047.00;;;;10313081;28;46111;-60
2022/03/21 22:34:03;;;;;;;4.35;1.90;;;18.30;29.00;21.00;95055.00;;;;10329117;28;45629;-61
2022/03/21 22:39:04;;;;;;;2.28;1.58;;;18.30;29.00;20.90;95035.00;;;;10328429;28;45370;-61
2022/03/21 22:49:25;;;;;;;3.33;1.48;;;18.20;28.90;20.90;95046.00;;;;10313145;28;45161;-62
2022/03/21 22:54:25;;;;;;;3.05;1.55;;;18.20;28.90;20.90;95036.00;;;;10316029;28;46159;-61
2022/03/21 22:59:26;;;;;;;2.50;1.38;;;18.20;28.90;20.90;95046.00;;;;10334814;28;47488;-62